Since we're talking weather...

IrishSheepdog

Sitting in the median
Since we\'re talking weather...

...looks like it should be an interesting night in our route system this evening! Bold is where I'm going...


KDAY 270104Z 270124 11004KT 1/4SM FG VV001
TEMPO 0104 1/2SM FG SCT001 OVC035
FM0400 13007KT 2SM BR OVC004
TEMPO 0407 5SM BR OVC010
FM0700 15008KT 4SM BR BKN010
TEMPO 0913 2SM -SHRA BR SCT010
FM1300 22012KT 5SM BR OVC010
TEMPO 1315 1SM -SN BR OVC006
FM1500 25014G24KT 5SM -SN OVC012
TEMPO 2024 2SM -SN OVC008=

KDAY 270133Z 13009KT 1/4SM FG BKN001 OVC032 02/02 A2971 RMK AO2 RVRNO

KFNT 270132Z 270224 08012KT 4SM -SN BR OVC020
TEMPO 0204 2SM -SNPL BR OVC010
FM0400 08012KT 2SM -SN BR OVC010
TEMPO 0407 1SM -SNPL BR OVC006
FM0700 08010KT 2SM -FZRAPL BR OVC008
FM1400 03008KT 3/4SM -SN BR OVC005
FM1800 36014KT 1/2SM SN FG OVC003=

KFNT 270125Z 07012KT 1 3/4SM -PLSN BR OVC020 M08/M10 A2983 RMK AO2 PRESFR PLB11 P0001


KGRR 270126Z 270124 08015KT 3SM -FZDZSN BR OVC015
TEMPO 0104 2SM -SN BR OVC008
FM0400 08008KT P6SM OVC025
TEMPO 0610 4SM -SN BR OVC015
FM1200 06008KT 3SM -SN BR OVC015
FM1400 05012KT 1/2SM SN FZFG VV004
FM1800 01012G18KT 2SM -SN OVC008
TEMPO 1822 1/2SM SN FZFG OVC015=

KGRR 270117Z 08016KT 2 1/2SM -FZDZSN OVC014 M08/M11 A2981 RMK AO2 FZDZB15 P0000

KIND 262322Z 270024 VRB03KT 3/4SM -FZDZ BR OVC003
TEMPO 0003 1 1/2SM BR
FM0300 VRB03KT 1 1/2SM BR OVC003
TEMPO 0306 3/4SM -FZDZ BR
FM0600 27006KT 2SM BR OVC006
TEMPO 0608 1SM -SN BR OVC003
FM0800 27012KT 2SM -SN OVC010
TEMPO 0913 1/2SM SN OVC006
FM1300 27016G24KT 3SM -SN OVC015
FM1700 27020G30KT 3SM -SN OVC015
TEMPO 1822 1SM -SN OVC009=

KIND 270055Z 00000KT 1 1/2SM BR OVC001 M01/M02 A2970 RMK AO2 SLP066 T10111017

KMDW 270047Z 270124 08008KT 5SM -SN BR OVC012
FM0300 07007KT 5SM -SN BR OVC009
FM0600 03008KT 3SM -SN BR OVC008
FM1000 01014G20KT 1 1/2SM -SN BR OVC007
TEMPO 1115 3/4SM -SN VV005
FM1600 34018G28KT 3SM -SN BLSN OVC011
TEMPO 1619 1SM -SN
FM2000 33018G28KT 4SM BLSN BKN025=

KMDW 270053Z 09008KT 7SM -SN OVC012 M04/M07 A2976 RMK AO2 SLP092 P0000 T10441072


KMKE 262320Z 270024 07015KT 3SM -SN BLSN SCT015 OVC022
TEMPO 0004 1SM -SN BLSN BKN015
FM0400 04010KT 2SM -SHSN OVC013
FM0700 02014KT 1SM -SHSN OVC010
FM1000 36015KT 2SM -SHSN OVC010
FM1400 33017G22KT 2SM -SN SCT010 OVC025
TEMPO 1418 1SM -SN OVC010
FM2000 32017G22KT P6SM SCT010 OVC025=

KMKE 270052Z 08010KT 4SM -SN OVC017 M06/M08 A2981 RMK AO2 SLP105 P0000 T10561078

KSBN 270007Z 270024 08005KT 5SM -FZDZ BR OVC007
FM0600 06006KT 3SM -FZDZSN BR OVC006
FM0900 06010KT 2SM -SN BR OVC006
FM1100 02012KT 1/2SM SN VV002
FM1600 34012G22KT 1SM -SN OVC006
FM2300 30015G25KT 3SM -SN OVC012=

KSBN 270054Z 07006KT 3SM -FZDZ BR OVC005 M06/M07 A2976 RMK AO2 SLP089 P0000 T10561067

KTOL 262342Z 270024 08012KT 2SM BR OVC008
TEMPO 0004 1SM -FZDZPL BR OVC004
FM0400 09010KT 1SM -FZDZ BR OVC004
FM1300 08012KT 2SM -FZRASN OVC008
FM1600 27015KT 5SM BR OVC010
TEMPO 1618 1SM -SN OVC006
FM2300 27015KT 2SM -SHSN OVC008=

KTOL 270126Z 08013KT 2SM -FZRA BR OVC004 M04/M05 A2975 RMK AO2 SFC VIS 6 UPB14E20FZRAE13B20 P0000
 
Top